sensor_id;sensor_type;location;lat;lon;timestamp;P1;durP1;ratioP1;P2;durP2;ratioP2
71622;SDS011;59473;53.214;5.728;2022-08-24T00:01:31;9.97;;;4.53;;
71622;SDS011;59473;53.214;5.728;2022-08-24T00:03:56;8.07;;;4.17;;
71622;SDS011;59473;53.214;5.728;2022-08-24T00:06:23;9.80;;;5.07;;
71622;SDS011;59473;53.214;5.728;2022-08-24T00:08:49;12.02;;;5.75;;
71622;SDS011;59473;53.214;5.728;2022-08-24T00:11:15;10.60;;;5.47;;
71622;SDS011;59473;53.214;5.728;2022-08-24T00:13:40;9.82;;;6.40;;
71622;SDS011;59473;53.214;5.728;2022-08-24T00:16:06;10.30;;;6.50;;
71622;SDS011;59473;53.214;5.728;2022-08-24T00:18:32;10.18;;;5.95;;
71622;SDS011;59473;53.214;5.728;2022-08-24T00:20:58;12.03;;;6.10;;
71622;SDS011;59473;53.214;5.728;2022-08-24T00:23:23;10.23;;;6.28;;
71622;SDS011;59473;53.214;5.728;2022-08-24T00:25:48;9.30;;;5.90;;
71622;SDS011;59473;53.214;5.728;2022-08-24T00:28:14;10.63;;;6.27;;
71622;SDS011;59473;53.214;5.728;2022-08-24T00:30:39;8.90;;;5.80;;
71622;SDS011;59473;53.214;5.728;2022-08-24T00:33:04;11.23;;;6.97;;
71622;SDS011;59473;53.214;5.728;2022-08-24T00:35:30;10.60;;;6.63;;
71622;SDS011;59473;53.214;5.728;2022-08-24T00:37:55;11.50;;;7.23;;
71622;SDS011;59473;53.214;5.728;2022-08-24T00:40:28;11.52;;;6.25;;
71622;SDS011;59473;53.214;5.728;2022-08-24T00:42:55;12.27;;;7.00;;
71622;SDS011;59473;53.214;5.728;2022-08-24T00:45:21;13.00;;;7.03;;
71622;SDS011;59473;53.214;5.728;2022-08-24T00:50:16;10.70;;;6.60;;
71622;SDS011;59473;53.214;5.728;2022-08-24T00:52:44;11.02;;;6.57;;
71622;SDS011;59473;53.214;5.728;2022-08-24T00:55:21;9.90;;;6.40;;
71622;SDS011;59473;53.214;5.728;2022-08-24T00:57:48;13.00;;;6.80;;
71622;SDS011;59473;53.214;5.728;2022-08-24T01:00:17;13.45;;;6.30;;
71622;SDS011;59473;53.214;5.728;2022-08-24T01:02:44;10.60;;;7.13;;
71622;SDS011;59473;53.214;5.728;2022-08-24T01:05:12;19.95;;;7.85;;
71622;SDS011;59473;53.214;5.728;2022-08-24T01:07:39;12.23;;;7.90;;
71622;SDS011;59473;53.214;5.728;2022-08-24T01:10:06;12.03;;;6.83;;
71622;SDS011;59473;53.214;5.728;2022-08-24T01:12:33;13.20;;;8.25;;
71622;SDS011;59473;53.214;5.728;2022-08-24T01:15:00;13.68;;;7.63;;
71622;SDS011;59473;53.214;5.728;2022-08-24T01:17:26;13.98;;;9.30;;
71622;SDS011;59473;53.214;5.728;2022-08-24T01:20:09;16.52;;;9.77;;
71622;SDS011;59473;53.214;5.728;2022-08-24T01:25:10;17.85;;;10.55;;
71622;SDS011;59473;53.214;5.728;2022-08-24T01:27:35;17.53;;;11.10;;
71622;SDS011;59473;53.214;5.728;2022-08-24T01:30:02;15.30;;;10.33;;
71622;SDS011;59473;53.214;5.728;2022-08-24T01:32:28;15.75;;;10.25;;
71622;SDS011;59473;53.214;5.728;2022-08-24T01:34:54;14.40;;;10.02;;
71622;SDS011;59473;53.214;5.728;2022-08-24T01:37:20;16.47;;;9.83;;
71622;SDS011;59473;53.214;5.728;2022-08-24T01:39:46;16.55;;;10.65;;
71622;SDS011;59473;53.214;5.728;2022-08-24T01:42:12;15.98;;;10.23;;
71622;SDS011;59473;53.214;5.728;2022-08-24T01:44:38;12.20;;;7.90;;
71622;SDS011;59473;53.214;5.728;2022-08-24T01:47:05;15.25;;;9.73;;
71622;SDS011;59473;53.214;5.728;2022-08-24T01:49:32;14.52;;;8.60;;
71622;SDS011;59473;53.214;5.728;2022-08-24T01:51:58;14.77;;;9.25;;
71622;SDS011;59473;53.214;5.728;2022-08-24T01:54:24;12.70;;;8.67;;
71622;SDS011;59473;53.214;5.728;2022-08-24T01:56:50;14.20;;;8.10;;
71622;SDS011;59473;53.214;5.728;2022-08-24T01:59:15;12.63;;;8.53;;
71622;SDS011;59473;53.214;5.728;2022-08-24T02:01:41;14.98;;;9.25;;
71622;SDS011;59473;53.214;5.728;2022-08-24T02:04:08;14.43;;;8.98;;
71622;SDS011;59473;53.214;5.728;2022-08-24T02:06:33;15.75;;;10.25;;
71622;SDS011;59473;53.214;5.728;2022-08-24T02:08:59;14.32;;;9.30;;
71622;SDS011;59473;53.214;5.728;2022-08-24T02:11:24;16.80;;;9.97;;
71622;SDS011;59473;53.214;5.728;2022-08-24T02:13:50;16.00;;;9.40;;
71622;SDS011;59473;53.214;5.728;2022-08-24T02:16:15;12.57;;;7.57;;
71622;SDS011;59473;53.214;5.728;2022-08-24T02:18:40;14.13;;;8.32;;
71622;SDS011;59473;53.214;5.728;2022-08-24T02:21:06;18.67;;;12.13;;
71622;SDS011;59473;53.214;5.728;2022-08-24T02:23:32;16.08;;;10.32;;
71622;SDS011;59473;53.214;5.728;2022-08-24T02:25:58;19.20;;;12.00;;
71622;SDS011;59473;53.214;5.728;2022-08-24T02:28:23;22.30;;;13.33;;
71622;SDS011;59473;53.214;5.728;2022-08-24T02:30:48;22.23;;;13.93;;
71622;SDS011;59473;53.214;5.728;2022-08-24T02:33:14;23.53;;;14.53;;
71622;SDS011;59473;53.214;5.728;2022-08-24T02:35:39;21.85;;;14.27;;
71622;SDS011;59473;53.214;5.728;2022-08-24T02:38:06;22.80;;;14.30;;
71622;SDS011;59473;53.214;5.728;2022-08-24T02:40:31;22.47;;;14.70;;
71622;SDS011;59473;53.214;5.728;2022-08-24T02:42:56;23.57;;;14.17;;
71622;SDS011;59473;53.214;5.728;2022-08-24T02:45:22;24.15;;;14.25;;
71622;SDS011;59473;53.214;5.728;2022-08-24T02:47:47;21.70;;;14.68;;
71622;SDS011;59473;53.214;5.728;2022-08-24T02:50:14;25.30;;;15.40;;
71622;SDS011;59473;53.214;5.728;2022-08-24T02:52:40;25.02;;;15.57;;
71622;SDS011;59473;53.214;5.728;2022-08-24T02:55:07;24.38;;;16.30;;
71622;SDS011;59473;53.214;5.728;2022-08-24T02:57:33;24.40;;;16.23;;
71622;SDS011;59473;53.214;5.728;2022-08-24T02:59:58;27.10;;;16.83;;
71622;SDS011;59473;53.214;5.728;2022-08-24T03:02:23;29.70;;;17.60;;
71622;SDS011;59473;53.214;5.728;2022-08-24T03:04:49;27.60;;;16.50;;
71622;SDS011;59473;53.214;5.728;2022-08-24T03:07:14;26.35;;;17.13;;
71622;SDS011;59473;53.214;5.728;2022-08-24T03:09:39;24.70;;;16.97;;
71622;SDS011;59473;53.214;5.728;2022-08-24T03:12:04;24.53;;;16.33;;
71622;SDS011;59473;53.214;5.728;2022-08-24T03:14:30;26.87;;;17.47;;
71622;SDS011;59473;53.214;5.728;2022-08-24T03:16:55;25.13;;;17.40;;
71622;SDS011;59473;53.214;5.728;2022-08-24T03:19:20;26.97;;;17.90;;
71622;SDS011;59473;53.214;5.728;2022-08-24T03:21:46;26.50;;;18.23;;
71622;SDS011;59473;53.214;5.728;2022-08-24T03:24:11;29.13;;;17.43;;
71622;SDS011;59473;53.214;5.728;2022-08-24T03:26:36;27.70;;;17.63;;
71622;SDS011;59473;53.214;5.728;2022-08-24T03:29:03;28.98;;;17.88;;
71622;SDS011;59473;53.214;5.728;2022-08-24T03:31:28;32.57;;;19.73;;
71622;SDS011;59473;53.214;5.728;2022-08-24T03:33:53;28.73;;;19.97;;
71622;SDS011;59473;53.214;5.728;2022-08-24T03:36:18;28.67;;;18.90;;
71622;SDS011;59473;53.214;5.728;2022-08-24T03:38:43;31.13;;;19.30;;
71622;SDS011;59473;53.214;5.728;2022-08-24T03:41:09;32.70;;;19.70;;
71622;SDS011;59473;53.214;5.728;2022-08-24T03:43:35;28.83;;;19.03;;
71622;SDS011;59473;53.214;5.728;2022-08-24T03:46:10;27.98;;;19.08;;
71622;SDS011;59473;53.214;5.728;2022-08-24T03:48:36;29.13;;;19.35;;
71622;SDS011;59473;53.214;5.728;2022-08-24T03:51:03;30.77;;;19.85;;
71622;SDS011;59473;53.214;5.728;2022-08-24T03:53:28;29.77;;;19.40;;
71622;SDS011;59473;53.214;5.728;2022-08-24T03:55:53;31.33;;;19.67;;
71622;SDS011;59473;53.214;5.728;2022-08-24T03:58:18;31.07;;;20.20;;
71622;SDS011;59473;53.214;5.728;2022-08-24T04:00:44;25.80;;;17.77;;
71622;SDS011;59473;53.214;5.728;2022-08-24T04:03:09;31.60;;;18.83;;
71622;SDS011;59473;53.214;5.728;2022-08-24T04:05:35;32.40;;;20.27;;
71622;SDS011;59473;53.214;5.728;2022-08-24T04:08:01;32.27;;;20.57;;
71622;SDS011;59473;53.214;5.728;2022-08-24T04:10:26;32.45;;;20.40;;
71622;SDS011;59473;53.214;5.728;2022-08-24T04:12:52;33.35;;;20.55;;
71622;SDS011;59473;53.214;5.728;2022-08-24T04:15:18;29.67;;;18.40;;
71622;SDS011;59473;53.214;5.728;2022-08-24T04:17:43;29.43;;;18.07;;
71622;SDS011;59473;53.214;5.728;2022-08-24T04:20:09;24.73;;;16.40;;
71622;SDS011;59473;53.214;5.728;2022-08-24T04:22:34;28.17;;;18.00;;
71622;SDS011;59473;53.214;5.728;2022-08-24T04:25:00;27.77;;;18.52;;
71622;SDS011;59473;53.214;5.728;2022-08-24T04:27:25;31.00;;;19.10;;
71622;SDS011;59473;53.214;5.728;2022-08-24T04:29:51;35.23;;;21.40;;
71622;SDS011;59473;53.214;5.728;2022-08-24T04:32:17;37.28;;;22.05;;
71622;SDS011;59473;53.214;5.728;2022-08-24T04:34:42;35.87;;;22.53;;
71622;SDS011;59473;53.214;5.728;2022-08-24T04:37:08;40.90;;;23.57;;
71622;SDS011;59473;53.214;5.728;2022-08-24T04:39:33;37.63;;;23.63;;
71622;SDS011;59473;53.214;5.728;2022-08-24T04:41:58;36.20;;;23.07;;
71622;SDS011;59473;53.214;5.728;2022-08-24T04:44:24;37.58;;;23.38;;
71622;SDS011;59473;53.214;5.728;2022-08-24T04:46:49;36.20;;;22.03;;
71622;SDS011;59473;53.214;5.728;2022-08-24T04:49:14;34.00;;;22.13;;
71622;SDS011;59473;53.214;5.728;2022-08-24T04:51:39;35.53;;;21.47;;
71622;SDS011;59473;53.214;5.728;2022-08-24T04:54:05;35.63;;;22.27;;
71622;SDS011;59473;53.214;5.728;2022-08-24T04:56:31;36.72;;;23.33;;
71622;SDS011;59473;53.214;5.728;2022-08-24T04:58:57;38.70;;;23.43;;
71622;SDS011;59473;53.214;5.728;2022-08-24T05:01:23;36.47;;;22.87;;
71622;SDS011;59473;53.214;5.728;2022-08-24T05:03:50;38.85;;;24.10;;
71622;SDS011;59473;53.214;5.728;2022-08-24T05:06:16;36.60;;;22.92;;
71622;SDS011;59473;53.214;5.728;2022-08-24T05:08:42;40.20;;;24.85;;
71622;SDS011;59473;53.214;5.728;2022-08-24T05:11:07;41.92;;;25.20;;
71622;SDS011;59473;53.214;5.728;2022-08-24T05:13:36;39.63;;;24.55;;
71622;SDS011;59473;53.214;5.728;2022-08-24T05:16:05;42.22;;;25.48;;
71622;SDS011;59473;53.214;5.728;2022-08-24T05:18:30;43.00;;;24.60;;
71622;SDS011;59473;53.214;5.728;2022-08-24T05:20:57;43.28;;;25.98;;
71622;SDS011;59473;53.214;5.728;2022-08-24T05:23:23;42.60;;;26.33;;
71622;SDS011;59473;53.214;5.728;2022-08-24T05:25:48;42.83;;;25.87;;
71622;SDS011;59473;53.214;5.728;2022-08-24T05:28:14;42.93;;;24.73;;
71622;SDS011;59473;53.214;5.728;2022-08-24T05:30:39;43.77;;;24.17;;
71622;SDS011;59473;53.214;5.728;2022-08-24T05:33:04;43.37;;;25.83;;
71622;SDS011;59473;53.214;5.728;2022-08-24T05:35:29;41.87;;;25.77;;
71622;SDS011;59473;53.214;5.728;2022-08-24T05:37:55;39.43;;;24.43;;
71622;SDS011;59473;53.214;5.728;2022-08-24T05:40:20;37.73;;;24.50;;
71622;SDS011;59473;53.214;5.728;2022-08-24T05:42:46;36.53;;;23.25;;
71622;SDS011;59473;53.214;5.728;2022-08-24T05:45:12;36.20;;;23.17;;
71622;SDS011;59473;53.214;5.728;2022-08-24T05:47:37;36.38;;;23.23;;
71622;SDS011;59473;53.214;5.728;2022-08-24T05:50:03;37.93;;;23.90;;
71622;SDS011;59473;53.214;5.728;2022-08-24T05:52:29;35.28;;;23.25;;
71622;SDS011;59473;53.214;5.728;2022-08-24T05:54:56;37.60;;;24.15;;
71622;SDS011;59473;53.214;5.728;2022-08-24T05:57:22;41.20;;;24.42;;
71622;SDS011;59473;53.214;5.728;2022-08-24T05:59:48;43.77;;;25.43;;
71622;SDS011;59473;53.214;5.728;2022-08-24T06:02:13;41.55;;;24.48;;
71622;SDS011;59473;53.214;5.728;2022-08-24T06:04:39;36.80;;;24.88;;
71622;SDS011;59473;53.214;5.728;2022-08-24T06:07:04;40.07;;;26.23;;
71622;SDS011;59473;53.214;5.728;2022-08-24T06:09:33;37.42;;;23.52;;
71622;SDS011;59473;53.214;5.728;2022-08-24T06:11:58;39.20;;;25.30;;
71622;SDS011;59473;53.214;5.728;2022-08-24T06:14:24;39.97;;;24.27;;
71622;SDS011;59473;53.214;5.728;2022-08-24T06:16:49;36.20;;;23.35;;
71622;SDS011;59473;53.214;5.728;2022-08-24T06:19:17;34.40;;;24.35;;
71622;SDS011;59473;53.214;5.728;2022-08-24T06:21:43;35.22;;;23.10;;
71622;SDS011;59473;53.214;5.728;2022-08-24T06:24:08;35.53;;;24.10;;
71622;SDS011;59473;53.214;5.728;2022-08-24T06:26:33;36.63;;;22.40;;
71622;SDS011;59473;53.214;5.728;2022-08-24T06:29:18;34.03;;;22.85;;
71622;SDS011;59473;53.214;5.728;2022-08-24T06:31:44;33.22;;;22.73;;
71622;SDS011;59473;53.214;5.728;2022-08-24T06:34:10;30.85;;;22.70;;
71622;SDS011;59473;53.214;5.728;2022-08-24T06:36:36;31.07;;;21.63;;
71622;SDS011;59473;53.214;5.728;2022-08-24T06:39:02;29.90;;;22.23;;
71622;SDS011;59473;53.214;5.728;2022-08-24T06:41:27;32.78;;;22.05;;
71622;SDS011;59473;53.214;5.728;2022-08-24T06:43:52;28.63;;;21.10;;
71622;SDS011;59473;53.214;5.728;2022-08-24T06:46:18;30.83;;;21.60;;
71622;SDS011;59473;53.214;5.728;2022-08-24T06:48:43;28.07;;;20.67;;
71622;SDS011;59473;53.214;5.728;2022-08-24T06:51:09;30.17;;;20.57;;
71622;SDS011;59473;53.214;5.728;2022-08-24T06:53:35;32.15;;;19.90;;
71622;SDS011;59473;53.214;5.728;2022-08-24T06:56:01;25.33;;;19.25;;
71622;SDS011;59473;53.214;5.728;2022-08-24T06:58:26;25.97;;;19.07;;
71622;SDS011;59473;53.214;5.728;2022-08-24T07:00:53;29.55;;;21.45;;
71622;SDS011;59473;53.214;5.728;2022-08-24T07:03:21;26.05;;;18.35;;
71622;SDS011;59473;53.214;5.728;2022-08-24T07:05:50;29.70;;;18.67;;
71622;SDS011;59473;53.214;5.728;2022-08-24T07:08:16;26.85;;;17.60;;
71622;SDS011;59473;53.214;5.728;2022-08-24T07:10:42;24.93;;;17.17;;
71622;SDS011;59473;53.214;5.728;2022-08-24T07:13:07;27.37;;;18.20;;
71622;SDS011;59473;53.214;5.728;2022-08-24T07:15:34;26.27;;;17.63;;
71622;SDS011;59473;53.214;5.728;2022-08-24T07:17:59;26.53;;;17.10;;
71622;SDS011;59473;53.214;5.728;2022-08-24T07:20:25;26.17;;;17.05;;
71622;SDS011;59473;53.214;5.728;2022-08-24T07:22:50;25.47;;;16.93;;
71622;SDS011;59473;53.214;5.728;2022-08-24T07:25:16;24.10;;;17.30;;
71622;SDS011;59473;53.214;5.728;2022-08-24T07:27:41;22.80;;;16.87;;
71622;SDS011;59473;53.214;5.728;2022-08-24T07:30:07;23.47;;;16.33;;
71622;SDS011;59473;53.214;5.728;2022-08-24T07:32:32;23.75;;;15.55;;
71622;SDS011;59473;53.214;5.728;2022-08-24T07:34:58;24.83;;;15.37;;
71622;SDS011;59473;53.214;5.728;2022-08-24T07:37:23;22.15;;;14.43;;
71622;SDS011;59473;53.214;5.728;2022-08-24T07:39:48;23.47;;;14.90;;
71622;SDS011;59473;53.214;5.728;2022-08-24T07:42:14;25.00;;;15.67;;
71622;SDS011;59473;53.214;5.728;2022-08-24T07:44:39;21.97;;;14.40;;
71622;SDS011;59473;53.214;5.728;2022-08-24T07:47:04;21.03;;;14.33;;
71622;SDS011;59473;53.214;5.728;2022-08-24T07:49:29;20.33;;;13.83;;
71622;SDS011;59473;53.214;5.728;2022-08-24T07:51:56;19.83;;;14.30;;
71622;SDS011;59473;53.214;5.728;2022-08-24T07:54:21;20.50;;;13.40;;
71622;SDS011;59473;53.214;5.728;2022-08-24T07:56:46;22.40;;;14.67;;
71622;SDS011;59473;53.214;5.728;2022-08-24T07:59:13;20.45;;;15.18;;
71622;SDS011;59473;53.214;5.728;2022-08-24T08:01:38;19.63;;;13.87;;
71622;SDS011;59473;53.214;5.728;2022-08-24T08:04:04;19.40;;;12.93;;
71622;SDS011;59473;53.214;5.728;2022-08-24T08:06:29;16.93;;;11.53;;
71622;SDS011;59473;53.214;5.728;2022-08-24T08:08:55;14.50;;;10.32;;
71622;SDS011;59473;53.214;5.728;2022-08-24T08:11:20;13.90;;;9.50;;
71622;SDS011;59473;53.214;5.728;2022-08-24T08:13:45;15.93;;;9.47;;
71622;SDS011;59473;53.214;5.728;2022-08-24T08:16:11;13.83;;;9.20;;
71622;SDS011;59473;53.214;5.728;2022-08-24T08:18:36;15.07;;;10.27;;
71622;SDS011;59473;53.214;5.728;2022-08-24T08:21:03;13.50;;;9.57;;
71622;SDS011;59473;53.214;5.728;2022-08-24T08:23:28;14.98;;;10.05;;
71622;SDS011;59473;53.214;5.728;2022-08-24T08:26:17;16.27;;;10.60;;
71622;SDS011;59473;53.214;5.728;2022-08-24T08:28:44;15.30;;;10.60;;
71622;SDS011;59473;53.214;5.728;2022-08-24T08:31:09;19.10;;;11.30;;
71622;SDS011;59473;53.214;5.728;2022-08-24T08:33:34;17.53;;;11.77;;
71622;SDS011;59473;53.214;5.728;2022-08-24T08:36:05;15.80;;;11.70;;
71622;SDS011;59473;53.214;5.728;2022-08-24T08:38:30;17.50;;;10.25;;
71622;SDS011;59473;53.214;5.728;2022-08-24T08:43:30;16.85;;;10.40;;
71622;SDS011;59473;53.214;5.728;2022-08-24T08:46:10;17.13;;;11.32;;
71622;SDS011;59473;53.214;5.728;2022-08-24T08:53:39;14.90;;;10.40;;
71622;SDS011;59473;53.214;5.728;2022-08-24T08:56:48;13.65;;;10.23;;
71622;SDS011;59473;53.214;5.728;2022-08-24T09:08:48;10.50;;;6.47;;
71622;SDS011;59473;53.214;5.728;2022-08-24T09:11:49;10.60;;;6.38;;
71622;SDS011;59473;53.214;5.728;2022-08-24T09:22:57;11.37;;;5.60;;
71622;SDS011;59473;53.214;5.728;2022-08-24T09:25:27;9.32;;;5.72;;
71622;SDS011;59473;53.214;5.728;2022-08-24T10:04:13;10.57;;;4.72;;
71622;SDS011;59473;53.214;5.728;2022-08-24T10:10:34;10.10;;;5.60;;
71622;SDS011;59473;53.214;5.728;2022-08-24T10:30:56;5.70;;;2.90;;
71622;SDS011;59473;53.214;5.728;2022-08-24T10:33:25;6.53;;;3.17;;
71622;SDS011;59473;53.214;5.728;2022-08-24T10:36:04;6.23;;;2.33;;
71622;SDS011;59473;53.214;5.728;2022-08-24T10:41:48;7.25;;;2.58;;
71622;SDS011;59473;53.214;5.728;2022-08-24T10:47:19;5.43;;;2.47;;
71622;SDS011;59473;53.214;5.728;2022-08-24T10:53:15;6.18;;;1.90;;
71622;SDS011;59473;53.214;5.728;2022-08-24T10:55:24;5.90;;;2.42;;
71622;SDS011;59473;53.214;5.728;2022-08-24T11:00:42;9.18;;;2.80;;
71622;SDS011;59473;53.214;5.728;2022-08-24T11:03:09;7.17;;;2.73;;
71622;SDS011;59473;53.214;5.728;2022-08-24T11:05:53;6.28;;;2.25;;
71622;SDS011;59473;53.214;5.728;2022-08-24T11:08:26;6.82;;;2.72;;
71622;SDS011;59473;53.214;5.728;2022-08-24T11:16:35;8.90;;;2.97;;
71622;SDS011;59473;53.214;5.728;2022-08-24T11:19:02;6.97;;;3.30;;
71622;SDS011;59473;53.214;5.728;2022-08-24T11:24:39;6.13;;;2.47;;
71622;SDS011;59473;53.214;5.728;2022-08-24T11:27:07;6.95;;;3.08;;
71622;SDS011;59473;53.214;5.728;2022-08-24T11:34:53;6.70;;;1.90;;
71622;SDS011;59473;53.214;5.728;2022-08-24T11:37:22;6.20;;;2.23;;
71622;SDS011;59473;53.214;5.728;2022-08-24T11:39:48;6.80;;;2.45;;
71622;SDS011;59473;53.214;5.728;2022-08-24T11:57:35;7.07;;;1.87;;
71622;SDS011;59473;53.214;5.728;2022-08-24T12:00:08;7.97;;;2.00;;
71622;SDS011;59473;53.214;5.728;2022-08-24T12:02:39;6.18;;;2.03;;
71622;SDS011;59473;53.214;5.728;2022-08-24T12:05:27;5.60;;;2.10;;
71622;SDS011;59473;53.214;5.728;2022-08-24T12:10:23;5.53;;;1.93;;
71622;SDS011;59473;53.214;5.728;2022-08-24T12:12:53;4.43;;;1.63;;
71622;SDS011;59473;53.214;5.728;2022-08-24T12:15:37;5.20;;;2.42;;
71622;SDS011;59473;53.214;5.728;2022-08-24T12:21:24;6.53;;;2.75;;
71622;SDS011;59473;53.214;5.728;2022-08-24T12:23:57;7.67;;;2.20;;
71622;SDS011;59473;53.214;5.728;2022-08-24T12:26:50;4.90;;;1.70;;
71622;SDS011;59473;53.214;5.728;2022-08-24T12:29:39;4.60;;;1.70;;
71622;SDS011;59473;53.214;5.728;2022-08-24T12:35:28;6.40;;;2.00;;
71622;SDS011;59473;53.214;5.728;2022-08-24T12:40:31;4.82;;;2.20;;
71622;SDS011;59473;53.214;5.728;2022-08-24T12:45:38;6.45;;;2.45;;
71622;SDS011;59473;53.214;5.728;2022-08-24T13:04:52;5.90;;;2.23;;
71622;SDS011;59473;53.214;5.728;2022-08-24T13:07:47;4.80;;;1.92;;
71622;SDS011;59473;53.214;5.728;2022-08-24T13:12:52;6.10;;;2.17;;
71622;SDS011;59473;53.214;5.728;2022-08-24T13:17:48;3.97;;;1.70;;
71622;SDS011;59473;53.214;5.728;2022-08-24T13:23:43;4.18;;;1.70;;
71622;SDS011;59473;53.214;5.728;2022-08-24T13:29:15;4.47;;;1.80;;
71622;SDS011;59473;53.214;5.728;2022-08-24T13:57:49;5.40;;;1.90;;
71622;SDS011;59473;53.214;5.728;2022-08-24T14:00:28;5.57;;;1.60;;
71622;SDS011;59473;53.214;5.728;2022-08-24T14:12:56;5.30;;;1.88;;
71622;SDS011;59473;53.214;5.728;2022-08-24T14:15:29;3.45;;;1.50;;
71622;SDS011;59473;53.214;5.728;2022-08-24T14:23:04;3.60;;;1.65;;
71622;SDS011;59473;53.214;5.728;2022-08-24T14:25:32;11.68;;;7.43;;
71622;SDS011;59473;53.214;5.728;2022-08-24T14:33:02;10.23;;;6.40;;
71622;SDS011;59473;53.214;5.728;2022-08-24T14:40:53;10.47;;;7.47;;
71622;SDS011;59473;53.214;5.728;2022-08-24T14:56:09;12.13;;;8.07;;
71622;SDS011;59473;53.214;5.728;2022-08-24T15:06:52;11.87;;;8.17;;
71622;SDS011;59473;53.214;5.728;2022-08-24T15:09:30;14.98;;;11.52;;
71622;SDS011;59473;53.214;5.728;2022-08-24T15:12:12;16.63;;;12.43;;
71622;SDS011;59473;53.214;5.728;2022-08-24T15:14:44;14.77;;;11.10;;
71622;SDS011;59473;53.214;5.728;2022-08-24T15:17:15;13.60;;;9.73;;
71622;SDS011;59473;53.214;5.728;2022-08-24T15:27:54;14.38;;;10.43;;
71622;SDS011;59473;53.214;5.728;2022-08-24T15:30:27;14.02;;;10.55;;
71622;SDS011;59473;53.214;5.728;2022-08-24T15:33:00;14.90;;;10.48;;
71622;SDS011;59473;53.214;5.728;2022-08-24T15:35:35;15.67;;;10.93;;
71622;SDS011;59473;53.214;5.728;2022-08-24T15:40:42;17.95;;;11.15;;
71622;SDS011;59473;53.214;5.728;2022-08-24T15:43:07;18.03;;;12.30;;
71622;SDS011;59473;53.214;5.728;2022-08-24T15:45:33;16.65;;;13.82;;
71622;SDS011;59473;53.214;5.728;2022-08-24T15:48:01;15.65;;;12.07;;
71622;SDS011;59473;53.214;5.728;2022-08-24T15:50:28;19.77;;;12.70;;
71622;SDS011;59473;53.214;5.728;2022-08-24T15:52:58;17.20;;;11.47;;
71622;SDS011;59473;53.214;5.728;2022-08-24T15:55:32;15.07;;;11.10;;
71622;SDS011;59473;53.214;5.728;2022-08-24T15:58:10;17.20;;;11.35;;
71622;SDS011;59473;53.214;5.728;2022-08-24T16:00:37;17.58;;;11.75;;
71622;SDS011;59473;53.214;5.728;2022-08-24T16:03:25;16.60;;;12.65;;
71622;SDS011;59473;53.214;5.728;2022-08-24T16:05:52;16.73;;;12.37;;
71622;SDS011;59473;53.214;5.728;2022-08-24T16:08:18;17.48;;;13.38;;
71622;SDS011;59473;53.214;5.728;2022-08-24T16:10:45;18.25;;;12.80;;
71622;SDS011;59473;53.214;5.728;2022-08-24T16:18:10;15.50;;;10.00;;
71622;SDS011;59473;53.214;5.728;2022-08-24T16:20:36;13.60;;;9.68;;
71622;SDS011;59473;53.214;5.728;2022-08-24T16:23:03;14.87;;;10.20;;
71622;SDS011;59473;53.214;5.728;2022-08-24T16:25:40;13.52;;;9.63;;
71622;SDS011;59473;53.214;5.728;2022-08-24T16:30:39;13.60;;;9.93;;
71622;SDS011;59473;53.214;5.728;2022-08-24T16:33:05;15.73;;;10.23;;
71622;SDS011;59473;53.214;5.728;2022-08-24T16:35:30;14.48;;;9.27;;
71622;SDS011;59473;53.214;5.728;2022-08-24T16:37:56;13.53;;;9.60;;
71622;SDS011;59473;53.214;5.728;2022-08-24T16:40:22;13.57;;;9.57;;
71622;SDS011;59473;53.214;5.728;2022-08-24T16:42:48;16.90;;;9.33;;
71622;SDS011;59473;53.214;5.728;2022-08-24T16:45:17;13.45;;;9.20;;
71622;SDS011;59473;53.214;5.728;2022-08-24T16:47:43;13.50;;;9.43;;
71622;SDS011;59473;53.214;5.728;2022-08-24T16:50:22;13.37;;;9.00;;
71622;SDS011;59473;53.214;5.728;2022-08-24T17:02:07;14.35;;;9.50;;
71622;SDS011;59473;53.214;5.728;2022-08-24T17:10:41;16.63;;;10.90;;
71622;SDS011;59473;53.214;5.728;2022-08-24T17:13:07;14.45;;;10.15;;
71622;SDS011;59473;53.214;5.728;2022-08-24T17:15:38;15.73;;;10.87;;
71622;SDS011;59473;53.214;5.728;2022-08-24T17:18:04;19.05;;;12.13;;
71622;SDS011;59473;53.214;5.728;2022-08-24T17:20:30;15.27;;;11.63;;
71622;SDS011;59473;53.214;5.728;2022-08-24T17:22:56;16.23;;;10.60;;
71622;SDS011;59473;53.214;5.728;2022-08-24T17:25:21;16.40;;;11.23;;
71622;SDS011;59473;53.214;5.728;2022-08-24T17:27:47;13.70;;;9.80;;
71622;SDS011;59473;53.214;5.728;2022-08-24T17:30:12;15.30;;;10.53;;
71622;SDS011;59473;53.214;5.728;2022-08-24T17:32:41;15.32;;;9.68;;
71622;SDS011;59473;53.214;5.728;2022-08-24T17:35:06;13.80;;;9.57;;
71622;SDS011;59473;53.214;5.728;2022-08-24T17:46:48;17.48;;;10.52;;
71622;SDS011;59473;53.214;5.728;2022-08-24T17:49:14;14.27;;;10.13;;
71622;SDS011;59473;53.214;5.728;2022-08-24T17:51:40;17.53;;;12.03;;
71622;SDS011;59473;53.214;5.728;2022-08-24T17:54:05;15.60;;;12.10;;
71622;SDS011;59473;53.214;5.728;2022-08-24T17:56:31;15.83;;;12.57;;
71622;SDS011;59473;53.214;5.728;2022-08-24T17:59:02;16.45;;;12.48;;
71622;SDS011;59473;53.214;5.728;2022-08-24T18:01:46;15.02;;;11.75;;
71622;SDS011;59473;53.214;5.728;2022-08-24T18:07:30;15.93;;;11.03;;
71622;SDS011;59473;53.214;5.728;2022-08-24T18:16:18;16.25;;;10.82;;
71622;SDS011;59473;53.214;5.728;2022-08-24T18:18:44;17.90;;;10.40;;
71622;SDS011;59473;53.214;5.728;2022-08-24T18:33:38;17.83;;;11.98;;
71622;SDS011;59473;53.214;5.728;2022-08-24T18:36:03;17.05;;;11.15;;
71622;SDS011;59473;53.214;5.728;2022-08-24T18:38:29;16.00;;;11.30;;
71622;SDS011;59473;53.214;5.728;2022-08-24T18:41:13;17.00;;;10.87;;
71622;SDS011;59473;53.214;5.728;2022-08-24T18:43:39;15.30;;;10.48;;
71622;SDS011;59473;53.214;5.728;2022-08-24T18:46:04;17.97;;;11.00;;
71622;SDS011;59473;53.214;5.728;2022-08-24T18:48:30;14.63;;;10.93;;
71622;SDS011;59473;53.214;5.728;2022-08-24T18:50:56;14.10;;;10.47;;
71622;SDS011;59473;53.214;5.728;2022-08-24T18:53:22;14.82;;;9.57;;
71622;SDS011;59473;53.214;5.728;2022-08-24T18:55:48;13.88;;;9.60;;
71622;SDS011;59473;53.214;5.728;2022-08-24T18:58:13;14.30;;;9.93;;
71622;SDS011;59473;53.214;5.728;2022-08-24T19:00:39;13.90;;;9.37;;
71622;SDS011;59473;53.214;5.728;2022-08-24T19:03:05;16.90;;;10.48;;
71622;SDS011;59473;53.214;5.728;2022-08-24T19:05:31;13.23;;;9.73;;
71622;SDS011;59473;53.214;5.728;2022-08-24T19:07:56;15.23;;;10.48;;
71622;SDS011;59473;53.214;5.728;2022-08-24T19:10:23;15.33;;;10.60;;
71622;SDS011;59473;53.214;5.728;2022-08-24T19:12:50;15.60;;;10.15;;
71622;SDS011;59473;53.214;5.728;2022-08-24T19:15:16;14.27;;;10.07;;
71622;SDS011;59473;53.214;5.728;2022-08-24T19:17:41;12.67;;;9.43;;
71622;SDS011;59473;53.214;5.728;2022-08-24T19:20:07;15.17;;;9.83;;
71622;SDS011;59473;53.214;5.728;2022-08-24T19:22:33;15.35;;;10.27;;
71622;SDS011;59473;53.214;5.728;2022-08-24T19:24:58;16.43;;;10.47;;
71622;SDS011;59473;53.214;5.728;2022-08-24T19:27:24;13.00;;;10.05;;
71622;SDS011;59473;53.214;5.728;2022-08-24T19:29:50;13.77;;;11.18;;
71622;SDS011;59473;53.214;5.728;2022-08-24T19:32:21;14.07;;;10.98;;
71622;SDS011;59473;53.214;5.728;2022-08-24T19:34:47;13.45;;;11.10;;
71622;SDS011;59473;53.214;5.728;2022-08-24T19:37:13;15.30;;;11.57;;
71622;SDS011;59473;53.214;5.728;2022-08-24T19:39:38;16.40;;;11.77;;
71622;SDS011;59473;53.214;5.728;2022-08-24T19:42:04;15.37;;;10.80;;